Time;durP1;ratioP1;P1;durP2;ratioP2;P2;SDS_P1;SDS_P2;PMS_P1;PMS_P2;Temp;Humidity;BMP_temperature;BMP_pressure;BME280_temperature;BME280_humidity;BME280_pressure;Samples;Min_cycle;Max_cycle;Signal;HPM_P1;HPM_P2
2023/03/03 00:01:26;;;;;;;50.53;29.40;;;2.90;99.90;;;1.87;100.00;101930.31;4171036;28;20397;-76
2023/03/03 00:03:27;;;;;;;;;;;2.90;99.90;;;1.79;100.00;101939.38;4170168;28;20021;-76
2023/03/03 00:05:27;;;;;;;47.60;27.15;;;2.80;99.90;;;1.77;100.00;101933.38;4186425;28;19912;-76
2023/03/03 00:07:28;;;;;;;52.35;28.08;;;2.70;99.90;;;1.73;100.00;101934.47;4172060;28;20419;-76
2023/03/03 00:09:29;;;;;;;46.60;26.02;;;2.70;99.90;;;1.68;100.00;101935.50;4170683;28;20021;-76
2023/03/03 00:11:30;;;;;;;46.90;25.30;;;2.70;99.90;;;1.67;100.00;101938.19;4170829;28;20037;-76
2023/03/03 00:13:37;;;;;;;45.72;26.13;;;2.60;99.90;;;1.64;100.00;101931.34;4173009;28;20400;-76
2023/03/03 00:15:38;;;;;;;48.38;25.13;;;2.60;99.90;;;1.65;100.00;101929.59;4185790;28;20098;-76
2023/03/03 00:17:39;;;;;;;51.38;25.90;;;2.60;99.90;;;1.63;100.00;101927.06;4176814;28;20017;-76
2023/03/03 00:19:46;;;;;;;51.75;25.48;;;2.60;99.90;;;1.59;100.00;101927.28;4170569;28;20030;-76
2023/03/03 00:21:50;;;;;;;56.80;26.23;;;2.60;99.90;;;1.56;100.00;101920.47;4185902;28;20492;-76
2023/03/03 00:23:52;;;;;;;50.20;26.38;;;2.50;99.90;;;1.53;100.00;101930.16;4185805;28;20037;-76
2023/03/03 00:25:53;;;;;;;45.50;24.95;;;2.50;99.90;;;1.43;100.00;101923.69;4169442;28;20033;-76
2023/03/03 00:27:55;;;;;;;44.92;23.67;;;2.50;99.90;;;1.45;100.00;101921.84;4178549;28;20041;-76
2023/03/03 00:29:59;;;;;;;54.53;27.88;;;2.40;99.90;;;1.37;100.00;101914.41;4170788;28;20052;-76
2023/03/03 00:32:21;;;;;;;50.80;25.20;;;2.40;99.90;;;1.40;100.00;101918.63;4169969;28;20029;-76
2023/03/03 00:34:27;;;;;;;46.58;25.83;;;2.40;99.90;;;1.36;100.00;101917.91;4170446;28;20389;-76
2023/03/03 00:36:36;;;;;;;50.03;25.90;;;2.40;99.90;;;1.45;100.00;101924.47;4169390;28;20045;-76
2023/03/03 00:38:37;;;;;;;54.13;24.90;;;2.40;99.90;;;1.45;100.00;101916.66;4175453;28;20033;-76
2023/03/03 00:40:39;;;;;;;50.80;25.77;;;2.50;99.90;;;1.46;100.00;101915.75;4170533;28;20100;-76
2023/03/03 00:42:48;;;;;;;43.63;26.65;;;2.50;99.90;;;1.45;100.00;101912.31;4172011;28;20025;-76
2023/03/03 00:44:58;;;;;;;44.85;24.52;;;2.50;99.90;;;1.46;100.00;101919.22;4185422;28;20033;-76
2023/03/03 00:47:27;;;;;;;47.95;25.30;;;2.50;99.90;;;1.41;100.00;101917.69;4183602;28;20022;-75
2023/03/03 00:49:28;;;;;;;48.35;24.73;;;2.40;99.90;;;1.34;100.00;101913.72;4175171;28;20036;-76
2023/03/03 00:51:33;;;;;;;50.38;26.65;;;2.40;99.90;;;1.32;100.00;101918.09;4185792;28;20024;-76
2023/03/03 00:53:34;;;;;;;50.53;25.10;;;2.40;99.90;;;1.32;100.00;101920.72;4185341;28;20033;-75
2023/03/03 00:55:35;;;;;;;42.67;24.88;;;2.30;99.90;;;1.29;100.00;101919.09;4186142;28;20413;-76
2023/03/03 00:57:36;;;;;;;51.42;25.83;;;2.30;99.90;;;1.28;100.00;101924.38;4171835;28;20655;-76
2023/03/03 00:59:37;;;;;;;47.20;24.58;;;2.30;99.90;;;1.21;100.00;101918.59;4170140;28;20030;-76
2023/03/03 01:01:38;;;;;;;53.00;26.52;;;2.20;99.90;;;1.20;100.00;101909.09;4171453;28;20528;-76
2023/03/03 01:03:38;;;;;;;43.92;25.23;;;2.20;99.90;;;1.21;100.00;101921.19;4200967;28;20029;-75
2023/03/03 01:05:39;;;;;;;41.28;22.90;;;2.20;99.90;;;1.16;100.00;101915.38;4185435;28;20025;-75
2023/03/03 01:07:40;;;;;;;49.85;25.25;;;2.20;99.90;;;1.19;100.00;101919.59;4170813;28;20101;-76
2023/03/03 01:09:41;;;;;;;41.70;23.38;;;2.20;99.90;;;1.21;100.00;101917.75;4169992;28;20033;-76
2023/03/03 01:11:42;;;;;;;44.30;23.52;;;2.20;99.90;;;1.19;100.00;101924.78;4169787;28;20033;-76
2023/03/03 01:13:46;;;;;;;41.58;23.02;;;2.20;99.90;;;1.16;100.00;101911.91;4168768;28;20064;-76
2023/03/03 01:15:48;;;;;;;42.70;23.65;;;2.20;99.90;;;1.10;100.00;101913.88;4169924;28;20108;-76
2023/03/03 01:17:49;;;;;;;41.85;23.95;;;2.10;99.90;;;1.13;100.00;101918.91;4172759;28;20038;-76
2023/03/03 01:19:50;;;;;;;45.63;23.25;;;2.20;99.90;;;1.09;100.00;101914.78;4168472;28;20052;-76
2023/03/03 01:21:51;;;;;;;43.45;23.05;;;2.10;99.90;;;1.08;100.00;101914.84;4169832;28;20029;-76
2023/03/03 01:23:52;;;;;;;43.17;22.25;;;2.10;99.90;;;1.04;100.00;101914.16;4169511;28;20106;-76
2023/03/03 01:25:53;;;;;;;46.33;24.17;;;2.10;99.90;;;1.02;100.00;101909.91;4169795;28;20087;-76
2023/03/03 01:27:54;;;;;;;38.22;22.45;;;2.00;99.90;;;1.02;100.00;101910.75;4169341;28;20046;-76
2023/03/03 01:29:56;;;;;;;44.03;24.98;;;2.00;99.90;;;1.05;100.00;101901.97;4173827;28;20080;-76
2023/03/03 01:31:56;;;;;;;44.90;23.52;;;2.00;99.90;;;1.10;100.00;101911.28;4168737;28;20021;-76
2023/03/03 01:33:57;;;;;;;40.92;23.42;;;2.10;99.90;;;1.09;100.00;101908.75;4168571;28;20064;-76
2023/03/03 01:35:58;;;;;;;43.47;22.80;;;2.10;99.90;;;1.08;100.00;101902.69;4184724;28;20520;-76
2023/03/03 01:37:59;;;;;;;40.50;22.55;;;2.10;99.90;;;1.09;100.00;101913.94;4180998;28;20037;-76
2023/03/03 01:40:00;;;;;;;44.22;23.30;;;2.10;99.90;;;1.08;100.00;101905.28;4169535;28;20088;-76
2023/03/03 01:42:02;;;;;;;48.67;25.63;;;2.10;99.90;;;1.15;100.00;101912.81;4168382;28;20037;-76
2023/03/03 01:44:03;;;;;;;47.35;23.52;;;2.10;99.90;;;1.24;100.00;101912.41;4168103;28;20022;-76
2023/03/03 01:46:06;;;;;;;51.83;25.27;;;2.20;99.90;;;1.32;100.00;101915.50;4168843;28;20063;-76
2023/03/03 01:48:23;;;;;;;49.53;24.35;;;2.20;99.90;;;1.38;100.00;101915.25;4178146;28;20028;-76
2023/03/03 01:50:31;;;;;;;43.20;23.60;;;2.30;99.90;;;1.34;100.00;101916.31;4168804;28;20099;-76
2023/03/03 01:52:43;;;;;;;40.35;23.52;;;2.30;99.90;;;1.37;100.00;101914.41;4167750;28;20385;-76
2023/03/03 01:54:54;;;;;;;39.15;23.30;;;2.30;99.90;;;1.35;100.00;101907.56;4177289;28;20540;-76
2023/03/03 01:57:01;;;;;;;40.03;20.83;;;2.30;99.90;;;1.32;100.00;101905.13;4177421;28;20068;-76
2023/03/03 01:59:09;;;;;;;47.55;22.58;;;2.30;99.90;;;1.31;100.00;101904.28;4168077;28;20089;-76
2023/03/03 02:01:21;;;;;;;44.38;21.45;;;2.30;99.90;;;1.34;100.00;101905.91;4169396;28;20084;-76
2023/03/03 02:03:23;;;;;;;44.40;21.27;;;2.30;99.90;;;1.35;100.00;101902.38;4167919;28;20030;-76
2023/03/03 02:05:25;;;;;;;41.38;22.50;;;2.30;99.90;;;1.35;100.00;101899.78;4169221;28;20045;-76
2023/03/03 02:07:29;;;;;;;41.90;21.92;;;2.30;99.90;;;1.41;100.00;101889.94;4172368;28;20538;-76
2023/03/03 02:09:48;;;;;;;38.95;21.70;;;2.40;99.90;;;1.44;100.00;101904.56;4167823;28;20026;-76
2023/03/03 02:11:51;;;;;;;48.10;23.45;;;2.40;99.90;;;1.47;100.00;101896.63;4168926;28;20044;-76
2023/03/03 02:13:52;;;;;;;45.28;23.85;;;2.40;99.90;;;1.52;100.00;101894.69;4167910;28;20030;-76
2023/03/03 02:15:55;;;;;;;43.08;23.08;;;2.40;99.90;;;1.51;100.00;101896.44;4168954;28;20033;-76
2023/03/03 02:18:01;;;;;;;48.95;25.10;;;2.40;99.90;;;1.53;100.00;101891.16;4169087;28;20029;-76
2023/03/03 02:20:30;;;;;;;48.97;24.45;;;2.50;99.90;;;1.56;100.00;101886.66;4167785;28;20035;-76
2023/03/03 02:23:19;;;;;;;49.97;22.75;;;2.50;99.90;;;1.60;100.00;101888.22;4160486;28;20038;-76
2023/03/03 02:25:39;;;;;;;45.05;22.65;;;2.60;99.90;;;1.62;100.00;101888.13;4167802;28;20127;-76
2023/03/03 02:27:40;;;;;;;44.00;23.20;;;2.60;99.90;;;1.56;100.00;101880.59;4179835;28;20045;-76
2023/03/03 02:29:41;;;;;;;40.63;22.20;;;2.50;99.90;;;1.57;100.00;101885.75;4169004;28;20471;-76
2023/03/03 02:31:42;;;;;;;37.63;22.38;;;2.50;99.90;;;1.59;100.00;101876.13;4169230;28;20030;-76
2023/03/03 02:33:47;;;;;;;43.55;24.67;;;2.60;99.90;;;1.63;100.00;101884.63;4184021;28;20029;-76
2023/03/03 02:35:48;;;;;;;;;;;2.60;99.90;;;1.59;100.00;101883.06;4167825;28;20037;-76
2023/03/03 02:37:50;;;;;;;43.08;22.40;;;2.60;99.90;;;1.60;100.00;101882.16;4183781;28;20366;-76
2023/03/03 02:39:50;;;;;;;38.45;21.30;;;2.60;99.90;;;1.61;100.00;101878.66;4177863;28;20033;-76
2023/03/03 02:42:26;;;;;;;42.28;24.17;;;2.60;99.90;;;1.62;100.00;101875.13;4168730;28;20030;-76
2023/03/03 02:44:30;;;;;;;40.50;21.77;;;2.60;99.90;;;1.59;100.00;101873.50;4173141;28;20036;-76
2023/03/03 02:46:41;;;;;;;41.85;22.52;;;2.60;99.90;;;1.56;100.00;101878.00;4180856;28;20037;-76
2023/03/03 02:48:42;;;;;;;41.90;21.48;;;2.60;99.90;;;1.52;100.00;101871.28;4167486;28;20037;-76
2023/03/03 02:50:43;;;;;;;46.90;23.00;;;2.60;99.90;;;1.52;100.00;101873.88;4167333;28;20493;-76
2023/03/03 02:52:43;;;;;;;41.30;22.38;;;2.50;99.90;;;1.51;100.00;101879.97;4168407;28;20091;-76
2023/03/03 02:54:44;;;;;;;44.13;21.70;;;2.50;99.90;;;1.45;100.00;101877.66;4178072;28;20067;-76
2023/03/03 02:56:46;;;;;;;39.25;22.30;;;2.50;99.90;;;1.40;100.00;101880.50;4178915;28;20018;-76
2023/03/03 02:58:46;;;;;;;44.70;22.95;;;2.40;99.90;;;1.42;100.00;101877.81;4167245;28;20421;-76
2023/03/03 03:00:47;;;;;;;42.05;23.17;;;2.40;99.90;;;1.36;100.00;101875.47;4167528;28;20025;-76
2023/03/03 03:02:48;;;;;;;42.42;22.92;;;2.40;99.90;;;1.40;100.00;101870.09;4167429;28;20484;-76
2023/03/03 03:04:49;;;;;;;42.03;23.00;;;2.40;99.90;;;1.39;100.00;101875.34;4167724;28;20021;-76
2023/03/03 03:06:51;;;;;;;42.25;22.95;;;2.40;99.90;;;1.39;100.00;101876.19;4173084;28;20071;-76
2023/03/03 03:08:52;;;;;;;44.65;21.95;;;2.40;99.90;;;1.37;100.00;101882.38;4170491;28;20061;-76
2023/03/03 03:10:55;;;;;;;43.03;21.13;;;2.40;99.90;;;1.36;100.00;101880.69;4174078;28;20071;-76
2023/03/03 03:12:56;;;;;;;37.08;21.20;;;2.30;99.90;;;1.33;100.00;101881.66;4171946;28;20100;-76
2023/03/03 03:14:57;;;;;;;45.80;23.10;;;2.40;99.90;;;1.34;100.00;101883.38;4170271;28;20053;-76
2023/03/03 03:16:58;;;;;;;45.65;21.10;;;2.30;99.90;;;1.32;100.00;101884.31;4171220;28;20033;-76
2023/03/03 03:19:00;;;;;;;39.05;22.10;;;2.30;99.90;;;1.35;100.00;101887.63;4170471;28;20440;-76
2023/03/03 03:21:09;;;;;;;38.20;20.75;;;2.30;99.90;;;1.32;100.00;101887.78;4171430;28;20029;-76
2023/03/03 03:23:12;;;;;;;43.47;21.55;;;2.30;99.90;;;1.26;100.00;101884.59;4170034;28;20040;-76
2023/03/03 03:25:13;;;;;;;39.50;20.83;;;2.30;99.90;;;1.23;100.00;101879.53;4170537;28;20551;-76
2023/03/03 03:27:13;;;;;;;39.83;22.77;;;2.20;99.90;;;1.22;100.00;101883.91;4179849;28;20045;-76
2023/03/03 03:29:14;;;;;;;39.90;22.23;;;2.20;99.90;;;1.17;100.00;101883.25;4175217;28;20477;-76
2023/03/03 03:31:17;;;;;;;37.92;20.70;;;2.20;99.90;;;1.15;100.00;101874.69;4171799;28;20038;-76
2023/03/03 03:33:18;;;;;;;44.20;21.88;;;2.10;99.90;;;1.19;100.00;101878.00;4170342;28;20025;-76
2023/03/03 03:35:19;;;;;;;40.55;22.17;;;2.20;99.90;;;1.20;100.00;101885.72;4170177;28;20075;-76
2023/03/03 03:37:20;;;;;;;35.95;20.73;;;2.20;99.90;;;1.15;100.00;101873.84;4180417;28;20025;-76
2023/03/03 03:39:21;;;;;;;37.85;20.55;;;2.10;99.90;;;1.09;100.00;101870.63;4171500;28;20033;-76
2023/03/03 03:41:22;;;;;;;44.42;22.27;;;2.10;99.90;;;1.09;100.00;101873.22;4170208;28;20525;-76
2023/03/03 03:43:23;;;;;;;42.90;20.88;;;2.10;99.90;;;1.08;100.00;101868.06;4170183;28;20044;-76
2023/03/03 03:45:24;;;;;;;37.28;21.20;;;2.10;99.90;;;1.11;100.00;101873.97;4169992;28;20028;-76
2023/03/03 03:47:25;;;;;;;42.35;20.83;;;2.10;99.90;;;1.09;100.00;101872.38;4178543;28;20021;-76
2023/03/03 03:49:26;;;;;;;36.42;20.10;;;2.10;99.90;;;1.11;100.00;101875.72;4170136;28;20036;-76
2023/03/03 03:51:26;;;;;;;40.72;20.45;;;2.10;99.90;;;1.07;100.00;101869.84;4171273;28;20034;-76
2023/03/03 03:53:28;;;;;;;37.55;20.92;;;2.10;99.90;;;1.08;100.00;101878.47;4170844;28;20030;-76
2023/03/03 03:55:28;;;;;;;42.70;21.45;;;2.10;99.90;;;1.06;100.00;101875.94;4185248;28;20028;-76
2023/03/03 03:57:30;;;;;;;44.08;21.30;;;2.10;99.90;;;1.04;100.00;101877.78;4176345;28;20507;-76
2023/03/03 03:59:31;;;;;;;32.70;18.90;;;2.00;99.90;;;1.04;100.00;101879.53;4169888;28;20042;-76
2023/03/03 04:01:31;;;;;;;38.30;20.70;;;2.10;99.90;;;1.00;100.00;101875.38;4171022;28;20370;-76
2023/03/03 04:03:33;;;;;;;38.30;20.58;;;2.00;99.90;;;0.98;100.00;101874.59;4170886;28;20029;-76
2023/03/03 04:05:34;;;;;;;41.05;22.25;;;2.00;99.90;;;0.99;100.00;101877.13;4169914;28;20175;-76
2023/03/03 04:07:35;;;;;;;35.67;20.02;;;2.00;99.90;;;0.94;100.00;101873.88;4172951;28;20034;-76
2023/03/03 04:09:36;;;;;;;40.63;20.63;;;1.90;99.90;;;0.91;100.00;101870.56;4169669;28;20037;-76
2023/03/03 04:11:36;;;;;;;39.78;20.77;;;2.00;99.90;;;0.89;100.00;101873.25;4169538;28;20032;-76
2023/03/03 04:13:38;;;;;;;34.55;20.67;;;1.90;99.90;;;0.87;100.00;101877.66;4153265;28;20085;-76
2023/03/03 04:15:38;;;;;;;39.67;20.33;;;1.90;99.90;;;0.84;100.00;101872.59;4170881;28;20029;-76
2023/03/03 04:17:40;;;;;;;33.53;18.92;;;1.90;99.90;;;0.82;100.00;101870.97;4180411;28;20025;-76
2023/03/03 04:19:41;;;;;;;37.38;19.08;;;1.90;99.90;;;0.79;100.00;101878.91;4171113;28;20040;-76
2023/03/03 04:21:41;;;;;;;36.88;18.65;;;1.80;99.90;;;0.72;100.00;101872.31;4170825;28;20489;-76
2023/03/03 04:23:42;;;;;;;38.28;20.33;;;1.80;99.90;;;0.66;100.00;101867.38;4170489;28;20021;-76
2023/03/03 04:25:46;;;;;;;34.95;18.55;;;1.70;99.90;;;0.60;100.00;101873.63;4170676;28;20025;-76
2023/03/03 04:27:47;;;;;;;38.00;19.48;;;1.70;99.90;;;0.62;100.00;101882.22;4179480;28;20045;-76
2023/03/03 04:29:47;;;;;;;43.88;21.08;;;1.70;99.90;;;0.60;100.00;101872.81;4170704;28;20060;-76
2023/03/03 04:31:48;;;;;;;40.40;20.58;;;1.60;99.90;;;0.62;100.00;101879.63;4169885;28;20523;-76
2023/03/03 04:33:49;;;;;;;38.20;20.20;;;1.60;99.90;;;0.58;100.00;101875.47;4169401;28;20420;-76
2023/03/03 04:35:50;;;;;;;36.67;20.02;;;1.60;99.90;;;0.59;100.00;101879.75;4170428;28;20022;-76
2023/03/03 04:37:51;;;;;;;40.25;21.48;;;1.60;99.90;;;0.64;100.00;101880.41;4176517;28;20038;-76
2023/03/03 04:39:52;;;;;;;37.80;21.20;;;1.70;99.90;;;0.68;100.00;101886.31;4169248;28;20030;-76
2023/03/03 04:41:53;;;;;;;41.47;21.75;;;1.70;99.90;;;0.72;100.00;101882.69;4170444;28;20381;-76
2023/03/03 04:43:53;;;;;;;38.08;19.88;;;1.70;99.90;;;0.70;100.00;101881.88;4170306;28;20018;-76
2023/03/03 04:45:54;;;;;;;43.25;21.92;;;1.70;99.90;;;0.72;100.00;101888.69;4170556;28;20047;-76
2023/03/03 04:47:55;;;;;;;44.33;22.65;;;1.70;99.90;;;0.73;100.00;101887.81;4174937;28;20077;-76
2023/03/03 04:49:56;;;;;;;40.47;20.10;;;1.70;99.90;;;0.71;100.00;101884.44;4169018;28;20072;-75
2023/03/03 04:51:57;;;;;;;41.90;21.20;;;1.70;99.90;;;0.69;100.00;101883.63;4170188;28;20507;-76
2023/03/03 04:53:58;;;;;;;45.72;23.50;;;1.70;99.90;;;0.68;100.00;101873.34;4171555;28;20026;-76
2023/03/03 04:55:59;;;;;;;42.40;20.88;;;1.70;99.90;;;0.67;100.00;101869.88;4185613;28;20029;-75
2023/03/03 04:58:00;;;;;;;41.53;20.23;;;1.70;99.90;;;0.63;100.00;101873.50;4155579;28;20068;-76
2023/03/03 05:00:01;;;;;;;45.08;22.23;;;1.70;99.90;;;0.68;100.00;101881.97;4171093;28;20112;-76
2023/03/03 05:02:04;;;;;;;41.92;21.75;;;1.70;99.90;;;0.67;100.00;101884.63;4169991;28;20481;-75
2023/03/03 05:04:05;;;;;;;40.97;21.33;;;1.70;99.90;;;0.62;100.00;101876.19;4170117;28;20022;-76
2023/03/03 05:06:06;;;;;;;41.92;20.58;;;1.70;99.90;;;0.64;100.00;101883.00;4169073;28;20052;-76
2023/03/03 05:08:07;;;;;;;44.83;20.85;;;1.70;99.90;;;0.71;100.00;101886.19;4170396;28;20037;-76
2023/03/03 05:10:09;;;;;;;50.25;21.52;;;1.70;99.90;;;0.70;100.00;101880.13;4169883;28;20420;-76
2023/03/03 05:12:10;;;;;;;42.08;21.42;;;1.70;99.90;;;0.71;100.00;101889.63;4169050;28;20033;-76
2023/03/03 05:14:11;;;;;;;34.83;21.30;;;1.70;99.90;;;0.68;100.00;101887.16;4169945;28;20382;-76
2023/03/03 05:16:12;;;;;;;44.63;20.70;;;1.70;99.90;;;0.64;100.00;101884.75;4176286;28;20028;-76
2023/03/03 05:18:13;;;;;;;34.80;20.42;;;1.70;99.90;;;0.60;100.00;101878.84;4168483;28;20029;-76
2023/03/03 05:20:14;;;;;;;39.22;20.55;;;1.60;99.90;;;0.57;100.00;101878.13;4179586;28;20032;-76
2023/03/03 05:22:15;;;;;;;40.97;19.60;;;1.60;99.90;;;0.49;100.00;101881.03;4168707;28;20037;-76
2023/03/03 05:24:16;;;;;;;37.17;19.10;;;1.50;99.90;;;0.44;100.00;101880.41;4168382;28;20522;-76
2023/03/03 05:26:17;;;;;;;37.67;20.67;;;1.50;99.90;;;0.35;100.00;101876.44;4169444;28;20034;-76
2023/03/03 05:28:18;;;;;;;36.75;20.35;;;1.40;99.90;;;0.35;100.00;101884.22;4178760;28;20024;-76
2023/03/03 05:30:19;;;;;;;36.25;19.67;;;1.40;99.90;;;0.34;100.00;101877.34;4168057;28;20659;-76
2023/03/03 05:32:20;;;;;;;38.55;19.35;;;1.40;99.90;;;0.37;100.00;101887.59;4168872;28;20029;-76
2023/03/03 05:34:20;;;;;;;41.80;21.48;;;1.40;99.90;;;0.38;100.00;101893.63;4169493;28;20203;-76
2023/03/03 05:36:22;;;;;;;47.28;21.00;;;1.40;99.90;;;0.37;100.00;101894.53;4168735;28;20025;-76
2023/03/03 05:38:24;;;;;;;50.67;20.58;;;1.30;99.90;;;0.32;100.00;101889.53;4177139;28;20037;-76
2023/03/03 05:40:26;;;;;;;40.85;20.38;;;1.40;99.90;;;0.28;100.00;101890.56;4168662;28;20028;-76
2023/03/03 05:42:27;;;;;;;40.28;20.42;;;1.30;99.90;;;0.28;100.00;101892.31;4168240;28;20029;-76
2023/03/03 05:44:28;;;;;;;40.45;20.25;;;1.30;99.90;;;0.20;100.00;101887.44;4169570;28;20025;-76
2023/03/03 05:46:29;;;;;;;37.35;19.92;;;1.30;99.90;;;0.20;100.00;101892.63;4168405;28;20437;-76
2023/03/03 05:48:30;;;;;;;40.85;20.63;;;1.20;99.90;;;0.20;100.00;101897.81;4174758;28;20032;-76
2023/03/03 05:50:31;;;;;;;40.25;21.63;;;1.20;99.90;;;0.17;100.00;101891.91;4167987;28;20124;-76
2023/03/03 05:52:32;;;;;;;38.10;20.38;;;1.20;99.90;;;0.22;100.00;101900.34;4167960;28;20026;-76
2023/03/03 05:54:33;;;;;;;43.33;20.38;;;1.20;99.90;;;0.22;100.00;101896.00;4177107;28;20035;-76
2023/03/03 05:56:34;;;;;;;40.30;21.45;;;1.20;99.90;;;0.26;100.00;101894.13;4184001;28;20020;-76
2023/03/03 05:58:35;;;;;;;40.75;21.50;;;1.30;99.90;;;0.27;100.00;101901.03;4168149;28;20072;-76
2023/03/03 06:00:37;;;;;;;37.03;20.17;;;1.30;99.90;;;0.25;100.00;101898.47;4169306;28;20025;-76
2023/03/03 06:02:39;;;;;;;46.72;21.20;;;1.30;99.90;;;0.25;100.00;101902.81;4184439;28;20025;-76
2023/03/03 06:04:40;;;;;;;43.70;20.95;;;1.30;99.90;;;0.28;100.00;101900.09;4184563;28;20084;-76
2023/03/03 06:06:40;;;;;;;44.33;22.30;;;1.30;99.90;;;0.36;100.00;101905.84;4185042;28;20036;-76
2023/03/03 06:08:42;;;;;;;51.15;22.30;;;1.40;99.90;;;0.37;100.00;101904.91;4167765;28;20081;-76
2023/03/03 06:10:42;;;;;;;47.40;21.65;;;1.40;99.90;;;0.39;100.00;101905.69;4184314;28;20035;-76
2023/03/03 06:12:43;;;;;;;48.25;22.17;;;1.40;99.90;;;0.36;100.00;101900.66;4168020;28;20053;-76
2023/03/03 06:14:44;;;;;;;40.58;20.75;;;1.40;99.90;;;0.30;100.00;101901.72;4168961;28;20029;-75
2023/03/03 06:16:46;;;;;;;43.92;20.98;;;1.40;99.90;;;0.23;100.00;101902.88;4168989;28;20072;-76
2023/03/03 06:18:47;;;;;;;45.42;21.85;;;1.40;99.90;;;0.27;100.00;101906.22;4167772;28;20036;-76
2023/03/03 06:20:53;;;;;;;43.22;21.02;;;1.30;99.90;;;0.25;100.00;101911.44;4169144;28;20497;-76
2023/03/03 06:22:54;;;;;;;45.85;21.40;;;1.30;99.90;;;0.23;100.00;101912.41;4167312;28;20036;-76
2023/03/03 06:24:55;;;;;;;40.95;22.60;;;1.30;99.90;;;0.15;100.00;101911.88;4167832;28;20038;-76
2023/03/03 06:26:58;;;;;;;44.53;21.38;;;1.30;99.90;;;0.07;100.00;101914.75;4171887;28;20063;-76
2023/03/03 06:28:59;;;;;;;42.92;21.73;;;1.20;99.90;;;0.00;100.00;101916.75;4173390;28;20021;-76
2023/03/03 06:31:00;;;;;;;49.22;23.13;;;1.10;99.90;;;0.08;100.00;101916.47;4167586;28;20030;-76
2023/03/03 06:33:01;;;;;;;39.95;22.17;;;1.20;99.90;;;0.05;100.00;101926.97;4173865;28;20033;-76
2023/03/03 06:35:02;;;;;;;55.47;24.10;;;1.10;99.90;;;0.04;100.00;101935.63;4184125;28;20033;-76
2023/03/03 06:37:03;;;;;;;46.47;22.33;;;1.10;99.90;;;0.09;100.00;101938.06;4179947;28;20018;-76
2023/03/03 06:39:04;;;;;;;41.80;23.27;;;1.10;99.90;;;0.11;100.00;101941.44;4168361;28;20170;-76
2023/03/03 06:41:07;;;;;;;46.55;24.85;;;1.10;99.90;;;0.11;100.00;101941.44;4168898;28;20064;-77
2023/03/03 06:43:08;;;;;;;47.72;23.48;;;1.10;99.90;;;0.10;100.00;101934.56;4167718;28;20028;-76
2023/03/03 06:45:10;;;;;;;52.50;25.20;;;1.10;99.90;;;0.08;100.00;101941.56;4167456;28;20026;-76
2023/03/03 06:47:11;;;;;;;59.47;24.90;;;1.20;99.90;;;0.16;100.00;101950.72;4173072;28;20032;-76
2023/03/03 06:49:11;;;;;;;50.15;24.08;;;1.20;99.90;;;0.17;100.00;101938.59;4168775;28;20030;-77
2023/03/03 06:51:32;;;;;;;62.20;27.70;;;1.20;99.90;;;0.27;100.00;101942.53;4167458;28;20037;-77
2023/03/03 06:53:33;;;;;;;54.78;25.83;;;1.30;99.90;;;0.26;100.00;101948.63;4167188;28;20043;-77
2023/03/03 06:55:34;;;;;;;52.75;25.70;;;1.30;99.90;;;0.21;100.00;101948.78;4183265;28;20095;-77
2023/03/03 06:57:36;;;;;;;51.22;23.40;;;1.30;99.90;;;0.23;100.00;101946.16;4172138;28;20029;-77
2023/03/03 06:59:37;;;;;;;48.08;24.42;;;1.30;99.90;;;0.26;100.00;101952.06;4171029;28;20148;-77
2023/03/03 07:01:38;;;;;;;54.67;25.20;;;1.30;99.90;;;0.26;100.00;101951.22;4196812;28;20527;-77
2023/03/03 07:03:39;;;;;;;48.60;24.88;;;1.30;99.90;;;0.33;100.00;101970.84;4183765;28;20028;-77
2023/03/03 07:05:41;;;;;;;56.15;27.65;;;1.30;99.90;;;0.35;100.00;101971.59;4183960;28;20021;-77
2023/03/03 07:07:42;;;;;;;65.03;27.88;;;1.40;99.90;;;0.38;100.00;101971.50;4169259;28;20026;-77
2023/03/03 07:09:47;;;;;;;62.88;28.80;;;1.40;99.90;;;0.45;100.00;101973.75;4170015;28;20022;-77
2023/03/03 07:11:50;;;;;;;66.65;30.00;;;1.50;99.90;;;0.53;100.00;101971.72;4167247;28;20040;-77
2023/03/03 07:13:54;;;;;;;70.70;29.52;;;1.50;99.90;;;0.58;100.00;101979.31;4168552;28;20075;-77
2023/03/03 07:16:00;;;;;;;64.50;28.60;;;1.60;99.90;;;0.57;100.00;101981.97;4167565;28;20033;-76
2023/03/03 07:18:03;;;;;;;68.30;28.65;;;1.60;99.90;;;0.68;100.00;101982.38;4172719;28;20518;-75
2023/03/03 07:20:23;;;;;;;70.47;28.48;;;1.60;99.90;;;0.75;100.00;101997.63;4166894;28;20030;-75
2023/03/03 07:22:27;;;;;;;68.30;30.63;;;1.70;99.90;;;0.76;100.00;101990.69;4166019;28;20034;-76
2023/03/03 07:24:30;;;;;;;62.80;29.42;;;1.70;99.90;;;0.81;100.00;101997.38;4166116;28;20029;-75
2023/03/03 07:26:31;;;;;;;62.38;29.08;;;1.80;99.90;;;0.83;100.00;101998.19;4166512;28;20110;-75
2023/03/03 07:28:33;;;;;;;55.63;26.77;;;1.80;99.90;;;0.78;100.00;102004.44;4173110;28;20025;-75
2023/03/03 07:30:33;;;;;;;55.05;27.52;;;1.80;99.90;;;0.79;100.00;102003.56;4173187;28;20022;-75
2023/03/03 07:32:44;;;;;;;65.93;29.88;;;1.80;99.90;;;0.82;100.00;101999.09;4168667;28;20061;-75
2023/03/03 07:34:51;;;;;;;61.78;28.48;;;1.80;99.90;;;0.84;100.00;102005.06;4167248;28;20021;-75
2023/03/03 07:37:01;;;;;;;61.92;30.58;;;1.80;99.90;;;0.91;100.00;101998.72;4173563;28;20037;-75
2023/03/03 07:39:44;;;;;;;72.30;31.75;;;1.90;99.90;;;1.05;100.00;102005.91;4169370;28;20524;-75
2023/03/03 07:41:45;;;;;;;67.32;31.20;;;2.00;99.90;;;1.09;100.00;102008.31;4143122;28;20591;-75
2023/03/03 07:43:53;;;;;;;74.32;33.42;;;2.10;99.90;;;1.14;100.00;102000.31;4133958;28;20034;-75
2023/03/03 07:46:41;;;;;;;68.03;32.42;;;2.10;99.90;;;1.28;100.00;102016.19;4154069;28;20508;-76
2023/03/03 07:48:43;;;;;;;64.00;31.02;;;2.20;99.90;;;1.27;100.00;102011.03;4167524;28;20504;-76
2023/03/03 07:50:44;;;;;;;67.70;31.38;;;2.30;99.90;;;1.32;100.00;102009.09;4167126;28;20025;-77
2023/03/03 07:52:59;;;;;;;67.22;33.00;;;2.30;99.90;;;1.39;100.00;102010.53;4167660;28;20493;-76
2023/03/03 07:55:01;;;;;;;;;;;2.40;99.90;;;1.44;100.00;102027.59;4181953;28;20516;-76
2023/03/03 07:57:21;;;;;;;69.63;31.45;;;2.40;99.90;;;1.53;100.00;102021.16;4178328;28;20377;-76
2023/03/03 07:59:24;;;;;;;73.25;32.42;;;2.50;99.90;;;1.53;100.00;102021.16;4170084;28;20022;-76
2023/03/03 08:01:47;;;;;;;72.28;34.17;;;2.50;99.90;;;1.57;100.00;102015.78;4169927;28;20026;-76
2023/03/03 08:03:50;;;;;;;75.28;32.75;;;2.60;99.90;;;1.68;100.00;102031.72;4174787;28;20043;-76
2023/03/03 08:05:51;;;;;;;78.97;35.42;;;2.60;99.90;;;1.80;100.00;102030.34;4186374;28;20028;-75
2023/03/03 08:07:53;;;;;;;77.97;36.65;;;2.70;99.90;;;1.82;100.00;102030.28;4171266;28;20402;-75
2023/03/03 08:09:54;;;;;;;76.05;34.38;;;2.80;99.90;;;1.88;100.00;102028.22;4169626;28;20025;-76
2023/03/03 08:12:09;;;;;;;81.40;35.28;;;2.80;99.90;;;1.90;100.00;102031.63;4170973;28;20121;-76
2023/03/03 08:14:14;;;;;;;80.07;37.80;;;2.90;99.90;;;1.94;100.00;102034.94;4169943;28;20465;-75
2023/03/03 08:16:15;;;;;;;78.28;38.40;;;2.90;99.90;;;2.01;100.00;102036.31;4187270;28;20087;-75
2023/03/03 08:18:26;;;;;;;74.93;35.40;;;3.00;99.90;;;2.09;100.00;102035.06;4171557;28;20491;-75
2023/03/03 08:20:48;;;;;;;78.18;36.03;;;3.00;99.90;;;2.10;100.00;102034.16;4170732;28;20025;-75
2023/03/03 08:22:49;;;;;;;78.10;36.40;;;3.10;99.90;;;2.17;100.00;102032.13;4169329;28;20437;-75
2023/03/03 08:24:50;;;;;;;77.07;36.08;;;3.10;99.90;;;2.26;100.00;102031.69;4170550;28;20026;-75
2023/03/03 08:26:51;;;;;;;74.32;37.47;;;3.20;99.90;;;2.33;100.00;102027.88;4176542;28;20063;-75
2023/03/03 08:28:53;;;;;;;78.78;36.42;;;3.30;99.90;;;2.35;100.00;102031.28;4176263;28;20034;-75
2023/03/03 08:30:54;;;;;;;81.28;38.40;;;3.30;99.90;;;2.40;100.00;102031.03;4169598;28;20056;-75